createdAt,value
2023-07-11T00:01:27.557Z,6.30
2023-07-11T00:03:55.887Z,8.40
2023-07-11T00:06:24.345Z,6.10
2023-07-11T00:08:52.600Z,6.80
2023-07-11T00:11:20.897Z,11.40
2023-07-11T00:13:52.027Z,8.10
2023-07-11T00:16:21.225Z,9.00
2023-07-11T00:18:49.697Z,7.10
2023-07-11T00:21:18.394Z,7.10
2023-07-11T00:23:46.767Z,8.70
2023-07-11T00:26:15.140Z,8.10
2023-07-11T00:28:43.622Z,8.60
2023-07-11T00:31:11.863Z,15.30
2023-07-11T00:33:40.187Z,10.90
2023-07-11T00:36:09.651Z,13.70
2023-07-11T00:38:38.368Z,13.80
2023-07-11T00:41:09.255Z,8.60
2023-07-11T00:43:37.784Z,8.80
2023-07-11T00:46:15.750Z,8.40
2023-07-11T00:48:50.704Z,8.20
2023-07-11T00:51:26.176Z,10.60
2023-07-11T00:53:55.206Z,10.60
2023-07-11T00:58:55.317Z,5.30
2023-07-11T01:01:25.698Z,10.30
2023-07-11T01:03:55.645Z,5.90
2023-07-11T01:06:29.969Z,6.90
2023-07-11T01:09:00.528Z,6.70
2023-07-11T01:11:32.485Z,7.00
2023-07-11T01:14:00.964Z,7.60
2023-07-11T01:16:29.310Z,12.20
2023-07-11T01:18:57.496Z,6.00
2023-07-11T01:21:25.547Z,7.00
2023-07-11T01:23:55.224Z,6.40
2023-07-11T01:26:23.535Z,7.00
2023-07-11T01:28:51.859Z,6.90
2023-07-11T01:31:20.345Z,8.00
2023-07-11T01:33:48.981Z,12.00
2023-07-11T01:36:17.153Z,9.10
2023-07-11T01:38:45.321Z,10.60
2023-07-11T01:41:13.431Z,9.40
2023-07-11T01:43:41.984Z,11.00
2023-07-11T01:46:10.276Z,6.50
2023-07-11T01:48:38.743Z,6.70
2023-07-11T01:51:06.907Z,9.30
2023-07-11T01:53:35.193Z,8.00
2023-07-11T01:56:05.229Z,10.20
2023-07-11T01:58:34.709Z,7.00
2023-07-11T02:03:31.378Z,6.00
2023-07-11T02:05:59.945Z,8.20
2023-07-11T02:08:28.043Z,15.40
2023-07-11T02:10:56.290Z,9.60
2023-07-11T02:13:24.388Z,6.30
2023-07-11T02:15:52.828Z,6.20
2023-07-11T02:18:21.598Z,8.20
2023-07-11T02:20:50.317Z,7.30
2023-07-11T02:23:18.636Z,8.00
2023-07-11T02:25:46.682Z,6.60
2023-07-11T02:28:14.940Z,11.40
2023-07-11T02:30:43.957Z,5.00
2023-07-11T02:33:12.262Z,7.60
2023-07-11T02:35:40.797Z,12.60
2023-07-11T02:38:09.072Z,7.00
2023-07-11T02:40:37.367Z,7.70
2023-07-11T02:43:05.521Z,10.10
2023-07-11T02:45:33.695Z,11.40
2023-07-11T02:48:02.210Z,8.90
2023-07-11T02:50:30.870Z,18.00
2023-07-11T02:52:59.332Z,14.40
2023-07-11T02:55:27.729Z,8.80
2023-07-11T02:57:56.199Z,7.40
2023-07-11T03:00:24.400Z,11.80
2023-07-11T03:02:52.911Z,5.60
2023-07-11T03:05:21.833Z,12.60
2023-07-11T03:07:50.643Z,7.90
2023-07-11T03:10:18.824Z,6.60
2023-07-11T03:12:47.085Z,5.50
2023-07-11T03:15:15.265Z,7.60
2023-07-11T03:17:44.191Z,5.00
2023-07-11T03:20:12.861Z,7.30
2023-07-11T03:22:41.113Z,7.00
2023-07-11T03:25:09.650Z,5.10
2023-07-11T03:27:37.871Z,7.00
2023-07-11T03:30:06.981Z,8.90
2023-07-11T03:32:35.361Z,10.50
2023-07-11T03:35:04.553Z,12.30
2023-07-11T03:40:01.609Z,8.60
2023-07-11T03:42:29.940Z,15.50
2023-07-11T03:44:58.264Z,12.70
2023-07-11T03:47:26.598Z,32.10
2023-07-11T03:49:54.819Z,24.00
2023-07-11T03:52:24.122Z,12.70
2023-07-11T03:54:52.396Z,7.70
2023-07-11T03:57:20.987Z,18.20
2023-07-11T03:59:49.236Z,19.00
2023-07-11T04:02:17.953Z,12.60
2023-07-11T04:04:46.444Z,12.40
2023-07-11T04:07:14.694Z,15.10
2023-07-11T04:09:43.919Z,25.70
2023-07-11T04:12:12.280Z,18.00
2023-07-11T04:14:40.773Z,17.70
2023-07-11T04:17:10.255Z,17.40
2023-07-11T04:19:38.421Z,14.50
2023-07-11T04:22:06.599Z,10.20
2023-07-11T04:24:35.087Z,10.80
2023-07-11T04:27:03.862Z,9.80
2023-07-11T04:29:32.140Z,8.30
2023-07-11T04:32:00.416Z,11.20
2023-07-11T04:34:28.692Z,10.90
2023-07-11T04:36:56.869Z,16.60
2023-07-11T04:39:25.061Z,13.50
2023-07-11T04:41:53.425Z,11.90
2023-07-11T04:44:21.691Z,11.50
2023-07-11T04:46:50.001Z,7.30
2023-07-11T04:49:18.250Z,12.00
2023-07-11T04:51:46.412Z,7.10
2023-07-11T04:54:14.596Z,6.40
2023-07-11T04:56:42.868Z,7.10
2023-07-11T04:59:11.039Z,6.40
2023-07-11T05:01:39.264Z,8.00
2023-07-11T05:04:07.750Z,7.30
2023-07-11T05:06:35.988Z,4.80
2023-07-11T05:09:04.459Z,6.00
2023-07-11T05:11:32.634Z,5.10
2023-07-11T05:14:00.927Z,11.40
2023-07-11T05:16:30.752Z,4.30
2023-07-11T05:19:00.118Z,5.70
2023-07-11T05:21:28.935Z,7.80
2023-07-11T05:23:57.184Z,8.80
2023-07-11T05:26:25.457Z,4.50
2023-07-11T05:28:53.738Z,10.30
2023-07-11T05:31:22.335Z,7.90
2023-07-11T05:33:53.475Z,4.40
2023-07-11T05:36:35.952Z,10.20
2023-07-11T05:39:08.648Z,5.30
2023-07-11T05:41:38.870Z,5.70
2023-07-11T05:44:06.886Z,4.50
2023-07-11T05:46:35.053Z,6.80
2023-07-11T05:49:04.627Z,7.70
2023-07-11T05:51:33.111Z,13.50
2023-07-11T05:54:02.097Z,4.70
2023-07-11T05:56:30.491Z,7.80
2023-07-11T05:58:59.180Z,7.20
2023-07-11T06:01:30.309Z,5.10
2023-07-11T06:04:13.927Z,11.50
2023-07-11T06:06:43.548Z,4.10
2023-07-11T06:09:20.291Z,6.80
2023-07-11T06:11:50.522Z,5.60
2023-07-11T06:14:19.800Z,7.30
2023-07-11T06:16:51.165Z,5.90
2023-07-11T06:19:20.504Z,11.70
2023-07-11T06:21:48.778Z,5.80
2023-07-11T06:24:17.039Z,8.20
2023-07-11T06:26:45.324Z,6.60
2023-07-11T06:29:14.929Z,7.50
2023-07-11T06:31:45.070Z,7.30
2023-07-11T06:34:13.322Z,4.70
2023-07-11T06:36:41.498Z,5.00
2023-07-11T06:41:39.788Z,6.80
2023-07-11T06:44:09.682Z,5.10
2023-07-11T06:46:38.017Z,4.40
2023-07-11T06:49:06.264Z,3.00
2023-07-11T06:51:34.948Z,2.90
2023-07-11T06:54:03.720Z,4.70
2023-07-11T06:56:34.438Z,3.50
2023-07-11T06:59:03.005Z,7.00
2023-07-11T07:01:38.221Z,4.70
2023-07-11T07:04:07.494Z,4.30
2023-07-11T07:06:37.016Z,4.30
2023-07-11T07:09:06.134Z,6.60
2023-07-11T07:11:36.982Z,4.00
2023-07-11T07:14:07.787Z,5.10
2023-07-11T07:16:40.578Z,10.70
2023-07-11T07:19:11.903Z,4.90
2023-07-11T07:21:40.581Z,7.80
2023-07-11T07:24:09.152Z,7.00
2023-07-11T07:26:37.430Z,5.40
2023-07-11T07:31:33.928Z,5.90
2023-07-11T07:34:02.562Z,4.70
2023-07-11T07:38:58.920Z,11.30
2023-07-11T07:41:28.317Z,7.70
2023-07-11T07:43:56.907Z,3.80
2023-07-11T07:46:25.232Z,6.10
2023-07-11T07:48:53.484Z,5.70
2023-07-11T07:51:22.156Z,5.80
2023-07-11T07:53:50.421Z,4.60
2023-07-11T07:56:22.019Z,7.30
2023-07-11T07:58:50.552Z,8.00
2023-07-11T08:01:20.473Z,5.70
2023-07-11T08:03:49.586Z,3.90
2023-07-11T08:06:18.905Z,4.20
2023-07-11T08:08:48.413Z,8.20
2023-07-11T08:11:19.049Z,5.70
2023-07-11T08:13:59.240Z,8.40
2023-07-11T08:16:33.727Z,6.80
2023-07-11T08:19:07.377Z,7.10
2023-07-11T08:21:37.533Z,4.70
2023-07-11T08:24:08.476Z,4.60
2023-07-11T08:26:37.255Z,5.60
2023-07-11T08:31:48.498Z,4.40
2023-07-11T08:34:16.931Z,3.80
2023-07-11T08:36:47.773Z,4.60
2023-07-11T08:39:16.036Z,3.00
2023-07-11T08:41:49.988Z,7.60
2023-07-11T08:44:22.928Z,4.80
2023-07-11T08:47:02.229Z,3.50
2023-07-11T08:49:41.063Z,4.80
2023-07-11T08:52:10.929Z,4.70
2023-07-11T08:55:14.072Z,5.40
2023-07-11T08:57:48.740Z,6.20
2023-07-11T09:00:19.089Z,4.10
2023-07-11T09:03:11.613Z,4.10
2023-07-11T09:08:43.196Z,3.50
2023-07-11T09:11:17.760Z,3.70
2023-07-11T09:14:21.526Z,5.70
2023-07-11T09:17:02.570Z,4.80
2023-07-11T09:19:55.021Z,3.30
2023-07-11T09:22:49.729Z,3.10
2023-07-11T09:25:22.914Z,5.10
2023-07-11T09:28:03.147Z,3.40
2023-07-11T09:30:49.951Z,4.30
2023-07-11T09:33:22.213Z,3.40
2023-07-11T09:35:52.686Z,4.30
2023-07-11T09:38:26.449Z,3.20
2023-07-11T09:41:11.932Z,3.90
2023-07-11T09:43:40.022Z,3.50
2023-07-11T09:46:16.776Z,3.40
2023-07-11T09:48:49.578Z,3.40
2023-07-11T09:51:38.227Z,3.50
2023-07-11T09:54:24.741Z,2.50
2023-07-11T09:59:22.103Z,3.80
2023-07-11T10:01:56.097Z,3.90
2023-07-11T10:04:26.525Z,4.70
2023-07-11T10:07:02.745Z,4.30
2023-07-11T10:09:34.252Z,5.30
2023-07-11T10:12:05.440Z,5.20
2023-07-11T10:14:37.328Z,4.70
2023-07-11T10:17:20.557Z,4.10
2023-07-11T10:19:53.401Z,4.20
2023-07-11T10:22:32.637Z,8.60
2023-07-11T10:25:23.326Z,4.70
2023-07-11T10:28:22.615Z,3.10
2023-07-11T10:30:51.591Z,5.80
2023-07-11T10:33:33.498Z,3.90
2023-07-11T10:36:11.600Z,5.80
2023-07-11T10:38:58.427Z,3.30
2023-07-11T10:41:40.193Z,3.30
2023-07-11T10:44:18.109Z,4.70
2023-07-11T10:46:53.204Z,3.50
2023-07-11T10:49:38.189Z,6.00
2023-07-11T10:52:13.774Z,3.80
2023-07-11T10:55:17.868Z,2.90
2023-07-11T10:57:54.008Z,5.70
2023-07-11T11:00:25.568Z,6.70
2023-07-11T11:03:21.706Z,5.40
2023-07-11T11:05:58.363Z,5.70
2023-07-11T11:08:34.561Z,2.60
2023-07-11T11:11:35.371Z,3.50
2023-07-11T11:14:11.756Z,3.00
2023-07-11T11:16:46.075Z,5.30
2023-07-11T11:19:26.815Z,3.30
2023-07-11T11:22:11.788Z,5.00
2023-07-11T11:25:02.245Z,5.90
2023-07-11T11:28:00.262Z,6.70
2023-07-11T11:30:47.135Z,3.60
2023-07-11T11:36:10.403Z,3.00
2023-07-11T11:38:45.278Z,5.60
2023-07-11T11:41:17.434Z,3.50
2023-07-11T11:51:30.765Z,5.10
2023-07-11T11:54:19.493Z,4.50
2023-07-11T11:56:53.703Z,5.80
2023-07-11T11:59:25.973Z,4.90
2023-07-11T12:01:54.491Z,4.50
2023-07-11T12:07:16.288Z,6.10
2023-07-11T12:09:49.187Z,5.60
2023-07-11T12:12:40.694Z,7.40
2023-07-11T12:15:12.253Z,4.60
2023-07-11T12:17:40.698Z,4.70
2023-07-11T12:20:09.455Z,7.60
2023-07-11T12:25:07.592Z,5.30
2023-07-11T12:30:40.509Z,7.10
2023-07-11T12:33:33.891Z,5.80
2023-07-11T12:36:07.828Z,5.50
2023-07-11T12:38:46.716Z,7.10
2023-07-11T12:41:44.595Z,7.00
2023-07-11T12:44:16.885Z,9.90
2023-07-11T12:46:47.536Z,6.90
2023-07-11T12:49:37.262Z,4.90
2023-07-11T12:52:10.090Z,4.80
2023-07-11T12:54:38.549Z,5.90
2023-07-11T12:57:14.911Z,5.40
2023-07-11T12:59:43.174Z,10.70
2023-07-11T13:02:15.434Z,7.00
2023-07-11T13:04:58.402Z,8.20
2023-07-11T13:07:32.446Z,7.50
2023-07-11T13:10:02.338Z,7.00
2023-07-11T13:12:37.306Z,6.70
2023-07-11T13:17:35.123Z,5.10
2023-07-11T13:20:04.020Z,4.70
2023-07-11T13:22:32.474Z,7.20
2023-07-11T13:25:02.175Z,6.70
2023-07-11T13:27:35.267Z,6.20
2023-07-11T13:30:03.758Z,7.40
2023-07-11T13:32:32.149Z,41.50
2023-07-11T13:37:48.560Z,10.00
2023-07-11T13:40:37.837Z,7.00
2023-07-11T13:43:21.432Z,11.20
2023-07-11T13:45:51.950Z,10.70
2023-07-11T13:48:24.314Z,7.00
2023-07-11T13:51:18.286Z,6.40
2023-07-11T13:53:53.925Z,6.90
2023-07-11T13:56:22.917Z,6.00
2023-07-11T13:58:54.132Z,6.80
2023-07-11T14:01:26.802Z,6.40
2023-07-11T14:03:56.882Z,5.30
2023-07-11T14:06:25.298Z,6.70
2023-07-11T14:08:53.982Z,6.90
2023-07-11T14:11:31.268Z,7.30
2023-07-11T14:13:59.595Z,8.80
2023-07-11T14:16:28.932Z,9.60
2023-07-11T14:18:57.233Z,13.50
2023-07-11T14:21:26.039Z,13.60
2023-07-11T14:23:54.121Z,8.60
2023-07-11T14:26:23.088Z,6.90
2023-07-11T14:28:53.095Z,7.90
2023-07-11T14:31:23.242Z,7.20
2023-07-11T14:33:51.596Z,10.10
2023-07-11T14:36:19.893Z,7.00
2023-07-11T14:38:48.044Z,7.50
2023-07-11T14:41:16.208Z,6.60
2023-07-11T14:43:44.389Z,7.20
2023-07-11T14:46:12.668Z,7.00
2023-07-11T14:48:40.841Z,7.30
2023-07-11T14:51:11.241Z,12.10
2023-07-11T14:53:43.645Z,9.00
2023-07-11T14:58:51.642Z,7.90
2023-07-11T15:01:19.904Z,10.40
2023-07-11T15:16:29.957Z,7.10
2023-07-11T15:18:58.207Z,7.80
2023-07-11T15:21:26.633Z,11.70
2023-07-11T15:23:54.999Z,12.50
2023-07-11T15:26:25.995Z,10.40
2023-07-11T15:28:54.940Z,10.30
2023-07-11T15:31:23.238Z,11.40
2023-07-11T15:33:52.179Z,12.10
2023-07-11T15:36:20.600Z,9.70
2023-07-11T15:38:48.748Z,11.70
2023-07-11T15:41:18.994Z,11.30
2023-07-11T15:43:47.255Z,10.40
2023-07-11T15:46:22.394Z,11.20
2023-07-11T15:48:54.415Z,10.70
2023-07-11T15:51:22.846Z,9.10
2023-07-11T15:53:52.086Z,8.50
2023-07-11T15:56:20.405Z,13.50
2023-07-11T15:58:48.788Z,9.20
2023-07-11T16:01:16.962Z,8.50
2023-07-11T16:03:45.306Z,10.90
2023-07-11T16:06:17.889Z,13.30
2023-07-11T16:08:46.403Z,8.70
2023-07-11T16:11:15.507Z,8.80
2023-07-11T16:13:46.020Z,7.20
2023-07-11T16:16:19.409Z,5.80
2023-07-11T16:18:48.036Z,6.00
2023-07-11T16:21:17.094Z,11.00
2023-07-11T16:26:22.970Z,6.40
2023-07-11T16:28:52.380Z,8.40
2023-07-11T16:31:20.699Z,10.40
2023-07-11T16:33:48.919Z,8.60
2023-07-11T16:36:17.520Z,9.50
2023-07-11T16:38:45.788Z,10.30
2023-07-11T16:41:13.970Z,11.10
2023-07-11T16:43:42.328Z,12.90
2023-07-11T16:46:18.999Z,6.80
2023-07-11T16:48:47.909Z,8.60
2023-07-11T16:53:51.512Z,7.90
2023-07-11T16:56:20.006Z,9.30
2023-07-11T16:58:49.298Z,6.30
2023-07-11T17:01:20.476Z,5.80
2023-07-11T17:03:49.015Z,7.50
2023-07-11T17:06:25.819Z,7.40
2023-07-11T17:08:55.343Z,7.30
2023-07-11T17:11:24.089Z,8.10
2023-07-11T17:13:52.473Z,8.70
2023-07-11T17:16:25.771Z,9.60
2023-07-11T17:18:54.126Z,10.90
2023-07-11T17:21:22.727Z,8.80
2023-07-11T17:23:50.816Z,7.20
2023-07-11T17:26:19.172Z,9.90
2023-07-11T17:28:47.444Z,6.00
2023-07-11T17:31:16.206Z,7.20
2023-07-11T17:33:44.717Z,7.70
2023-07-11T17:36:14.959Z,7.20
2023-07-11T17:38:43.633Z,7.90
2023-07-11T17:41:12.003Z,8.30
2023-07-11T17:43:42.060Z,5.50
2023-07-11T17:46:39.283Z,9.40
2023-07-11T17:49:04.777Z,10.30
2023-07-11T17:51:34.056Z,5.30
2023-07-11T17:54:02.983Z,12.10
2023-07-11T17:56:47.492Z,6.20
2023-07-11T17:59:19.498Z,9.70
2023-07-11T18:01:48.060Z,6.10
2023-07-11T18:04:17.046Z,7.00
2023-07-11T18:06:45.863Z,8.00
2023-07-11T18:09:14.141Z,6.90
2023-07-11T18:11:42.514Z,5.70
2023-07-11T18:14:10.796Z,6.50
2023-07-11T18:16:39.108Z,10.30
2023-07-11T18:19:10.211Z,9.00
2023-07-11T18:21:38.792Z,8.90
2023-07-11T18:24:07.172Z,10.00
2023-07-11T18:26:35.446Z,9.40
2023-07-11T18:29:03.727Z,9.70
2023-07-11T18:31:32.030Z,10.30
2023-07-11T18:34:00.384Z,12.00
2023-07-11T18:36:29.065Z,8.80
2023-07-11T18:38:57.557Z,7.20
2023-07-11T18:41:27.619Z,9.60
2023-07-11T18:43:56.275Z,5.90
2023-07-11T18:46:25.078Z,9.00
2023-07-11T18:51:22.202Z,7.90
2023-07-11T18:53:50.481Z,11.00
2023-07-11T18:56:23.358Z,7.80
2023-07-11T18:58:51.644Z,9.00
2023-07-11T19:01:20.165Z,8.00
2023-07-11T19:03:48.642Z,10.80
2023-07-11T19:06:18.606Z,14.00
2023-07-11T19:08:48.980Z,9.70
2023-07-11T19:11:18.816Z,11.20
2023-07-11T19:13:47.646Z,10.10
2023-07-11T19:16:23.242Z,12.20
2023-07-11T19:18:51.778Z,11.10
2023-07-11T19:21:20.268Z,10.80
2023-07-11T19:23:49.046Z,17.60
2023-07-11T19:26:20.295Z,17.10
2023-07-11T19:28:48.570Z,25.80
2023-07-11T19:31:17.325Z,36.30
2023-07-11T19:33:45.849Z,28.10
2023-07-11T19:36:18.499Z,23.40
2023-07-11T19:38:46.886Z,24.60
2023-07-11T19:41:18.269Z,18.60
2023-07-11T19:43:47.741Z,11.90
2023-07-11T19:46:19.296Z,27.20
2023-07-11T19:48:48.028Z,11.70
2023-07-11T19:51:16.564Z,12.10
2023-07-11T19:53:45.056Z,9.00
2023-07-11T19:56:23.120Z,11.40
2023-07-11T19:58:52.257Z,9.10
2023-07-11T20:03:51.757Z,13.10
2023-07-11T20:06:24.749Z,11.40
2023-07-11T20:08:54.084Z,9.80
2023-07-11T20:11:22.436Z,9.90
2023-07-11T20:13:50.916Z,11.20
2023-07-11T20:16:24.953Z,8.90
2023-07-11T20:18:54.350Z,10.40
2023-07-11T20:21:25.226Z,12.00
2023-07-11T20:23:54.363Z,12.30
2023-07-11T20:26:28.446Z,12.10
2023-07-11T20:29:00.556Z,13.40
2023-07-11T20:31:28.954Z,19.20
2023-07-11T20:33:57.809Z,18.40
2023-07-11T20:36:29.772Z,13.60
2023-07-11T20:38:59.075Z,12.00
2023-07-11T20:41:28.204Z,11.10
2023-07-11T20:44:00.905Z,16.70
2023-07-11T20:46:30.016Z,13.40
2023-07-11T20:49:01.566Z,13.60
2023-07-11T20:51:30.830Z,12.10
2023-07-11T20:53:59.327Z,12.80
2023-07-11T20:56:28.578Z,9.90
2023-07-11T20:58:56.868Z,11.30
2023-07-11T21:01:26.280Z,11.80
2023-07-11T21:03:54.646Z,9.30
2023-07-11T21:06:32.264Z,13.70
2023-07-11T21:09:02.471Z,14.40
2023-07-11T21:11:30.730Z,10.30
2023-07-11T21:13:59.310Z,9.40
2023-07-11T21:16:32.772Z,8.70
2023-07-11T21:19:04.816Z,9.40
2023-07-11T21:21:35.411Z,10.20
2023-07-11T21:24:04.080Z,9.60
2023-07-11T21:26:35.699Z,10.70
2023-07-11T21:29:05.147Z,9.90
2023-07-11T21:31:33.740Z,11.10
2023-07-11T21:34:02.867Z,9.40
2023-07-11T21:36:34.251Z,9.20
2023-07-11T21:39:04.485Z,8.20
2023-07-11T21:41:32.771Z,9.10
2023-07-11T21:44:00.756Z,11.50
2023-07-11T21:46:32.179Z,9.10
2023-07-11T21:49:01.643Z,11.20
2023-07-11T21:51:32.600Z,8.40
2023-07-11T21:54:01.124Z,9.80
2023-07-11T21:56:31.104Z,9.70
2023-07-11T21:59:02.629Z,9.80
2023-07-11T22:01:31.777Z,9.60
2023-07-11T22:04:02.057Z,11.50
2023-07-11T22:06:35.386Z,16.40
2023-07-11T22:09:04.290Z,8.60
2023-07-11T22:11:32.462Z,7.90
2023-07-11T22:14:00.663Z,14.20
2023-07-11T22:16:30.610Z,14.50
2023-07-11T22:18:59.395Z,9.90
2023-07-11T22:21:28.225Z,8.20
2023-07-11T22:23:59.119Z,11.40
2023-07-11T22:26:31.571Z,15.20
2023-07-11T22:29:02.863Z,13.00
2023-07-11T22:31:32.286Z,10.10
2023-07-11T22:34:01.000Z,16.00
2023-07-11T22:36:29.455Z,8.10
2023-07-11T22:38:57.660Z,11.00
2023-07-11T22:41:25.941Z,12.50
2023-07-11T22:43:54.018Z,10.10
2023-07-11T22:46:22.653Z,21.60
2023-07-11T22:48:52.165Z,18.40
2023-07-11T22:51:20.662Z,12.60
2023-07-11T22:53:49.567Z,10.80
2023-07-11T22:56:23.979Z,9.70
2023-07-11T22:58:53.779Z,12.50
2023-07-11T23:01:23.084Z,14.90
2023-07-11T23:03:51.861Z,17.50
2023-07-11T23:06:27.475Z,11.00
2023-07-11T23:08:56.892Z,12.60
2023-07-11T23:13:54.792Z,13.50
2023-07-11T23:16:31.325Z,11.40
2023-07-11T23:19:06.258Z,10.60
2023-07-11T23:21:35.297Z,11.80
2023-07-11T23:24:03.670Z,12.30
2023-07-11T23:26:31.844Z,10.90
2023-07-11T23:29:00.027Z,13.50
2023-07-11T23:31:28.493Z,14.70
2023-07-11T23:33:57.177Z,10.40
2023-07-11T23:36:27.015Z,11.40
2023-07-11T23:38:56.637Z,11.50
2023-07-11T23:41:25.077Z,10.10
2023-07-11T23:43:53.619Z,10.40
2023-07-11T23:46:27.991Z,11.00
2023-07-11T23:48:57.726Z,19.20
2023-07-11T23:51:29.115Z,16.30
2023-07-11T23:53:58.445Z,8.00
2023-07-11T23:58:57.262Z,12.90
